Time;durP1;ratioP1;P1;durP2;ratioP2;P2;SDS_P1;SDS_P2;PMS_P1;PMS_P2;Temp;Humidity;BMP_temperature;BMP_pressure;BME280_temperature;BME280_humidity;BME280_pressure;Samples;Min_cycle;Max_cycle;Signal;HPM_P1;HPM_P2
2022/08/26 00:01:23;;;;;;;1.02;0.93;;;23.40;57.40;;;;;;6220745;28;20037;-74
2022/08/26 00:04:24;;;;;;;1.85;1.02;;;23.40;57.40;;;;;;6216654;28;20095;-74
2022/08/26 00:07:25;;;;;;;1.70;1.17;;;23.40;57.40;;;;;;6216421;28;20022;-74
2022/08/26 00:10:25;;;;;;;1.08;0.98;;;23.40;57.40;;;;;;6216327;28;20032;-74
2022/08/26 00:13:26;;;;;;;1.08;0.98;;;23.40;57.40;;;;;;6222793;28;20021;-73
2022/08/26 00:16:28;;;;;;;1.35;1.00;;;23.40;57.40;;;;;;6216561;28;20033;-75
2022/08/26 00:19:28;;;;;;;0.88;0.88;;;23.40;57.40;;;;;;6216291;28;20022;-74
2022/08/26 00:22:29;;;;;;;2.00;0.80;;;23.40;57.40;;;;;;6215749;28;20030;-74
2022/08/26 00:25:31;;;;;;;0.80;0.80;;;23.40;57.40;;;;;;6216104;28;20041;-74
2022/08/26 00:28:33;;;;;;;0.88;0.80;;;23.40;57.40;;;;;;6215584;28;20499;-74
2022/08/26 00:31:33;;;;;;;1.13;0.95;;;23.40;57.40;;;;;;6216082;28;20026;-74
2022/08/26 00:34:35;;;;;;;1.08;0.98;;;23.40;57.40;;;;;;6216405;28;20099;-74
2022/08/26 00:37:35;;;;;;;1.08;0.90;;;23.40;57.40;;;;;;6215745;28;20018;-74
2022/08/26 00:40:42;;;;;;;2.05;1.02;;;23.40;57.40;;;;;;6215471;28;20060;-74
2022/08/26 00:43:42;;;;;;;1.23;0.88;;;23.40;57.40;;;;;;6215444;28;20037;-74
2022/08/26 00:46:53;;;;;;;1.00;0.90;;;23.40;57.40;;;;;;6216030;28;20026;-74
2022/08/26 00:49:55;;;;;;;1.30;1.10;;;23.40;57.40;;;;;;6214602;28;20041;-74
2022/08/26 00:52:58;;;;;;;1.02;0.82;;;23.40;57.40;;;;;;6214472;28;20464;-74
2022/08/26 00:56:19;;;;;;;1.48;0.90;;;23.40;57.40;;;;;;6214324;28;20030;-74
2022/08/26 00:59:20;;;;;;;0.77;0.77;;;23.40;57.40;;;;;;6214414;28;20029;-74
2022/08/26 01:02:21;;;;;;;1.33;0.80;;;23.40;57.40;;;;;;6214214;28;20499;-74
2022/08/26 01:05:22;;;;;;;1.35;1.05;;;23.40;57.40;;;;;;6220591;28;20030;-74
2022/08/26 01:08:24;;;;;;;1.00;0.90;;;23.40;57.50;;;;;;6214430;28;20563;-74
2022/08/26 01:11:25;;;;;;;1.00;0.90;;;23.40;57.40;;;;;;6214352;28;20553;-74
2022/08/26 01:14:30;;;;;;;1.05;0.90;;;23.40;57.40;;;;;;6214551;28;20399;-74
2022/08/26 01:17:31;;;;;;;0.85;0.80;;;23.40;57.40;;;;;;6214520;28;20038;-74
2022/08/26 01:21:10;;;;;;;1.02;0.80;;;23.40;57.40;;;;;;6221010;28;20034;-74
2022/08/26 01:24:11;;;;;;;1.00;0.90;;;23.40;57.40;;;;;;6214177;28;20044;-74
2022/08/26 01:27:16;;;;;;;1.05;0.90;;;23.40;57.40;;;;;;6214018;28;20030;-74
2022/08/26 01:30:17;;;;;;;1.20;0.90;;;23.40;57.40;;;;;;6221661;28;20030;-74
2022/08/26 01:33:25;;;;;;;0.70;0.70;;;23.40;57.50;;;;;;6214754;28;20038;-74
2022/08/26 01:36:26;;;;;;;1.00;0.90;;;23.40;57.40;;;;;;6215393;28;20022;-74
2022/08/26 01:39:27;;;;;;;1.80;1.10;;;23.30;57.40;;;;;;6220097;28;20033;-74
2022/08/26 01:42:28;;;;;;;1.25;0.93;;;23.40;57.50;;;;;;6213808;28;20690;-74
2022/08/26 01:45:32;;;;;;;0.73;0.70;;;23.40;57.40;;;;;;6213645;28;20498;-74
2022/08/26 01:48:35;;;;;;;0.85;0.82;;;23.40;57.50;;;;;;6215594;28;20026;-74
2022/08/26 01:51:38;;;;;;;1.08;0.95;;;23.40;57.50;;;;;;6217498;28;20022;-74
2022/08/26 01:54:39;;;;;;;1.23;0.85;;;23.40;57.50;;;;;;6223382;28;20108;-74
2022/08/26 01:57:43;;;;;;;0.95;0.85;;;23.40;57.50;;;;;;6220984;28;20090;-74
2022/08/26 02:00:44;;;;;;;1.27;0.90;;;23.40;57.50;;;;;;6217618;28;20079;-74
2022/08/26 02:03:57;;;;;;;1.20;1.10;;;23.40;57.50;;;;;;6217312;28;20109;-74
2022/08/26 02:07:01;;;;;;;0.60;0.60;;;23.40;57.50;;;;;;6217986;28;20022;-74
2022/08/26 02:10:04;;;;;;;0.90;0.70;;;23.40;57.40;;;;;;6218440;28;20050;-73
2022/08/26 02:13:07;;;;;;;1.15;0.80;;;23.40;57.50;;;;;;6218398;28;20034;-73
2022/08/26 02:16:09;;;;;;;1.00;0.82;;;23.40;57.50;;;;;;6218352;28;20028;-73
2022/08/26 02:19:13;;;;;;;0.88;0.65;;;23.40;57.50;;;;;;6217674;28;20018;-74
2022/08/26 02:22:19;;;;;;;0.73;0.73;;;23.40;57.50;;;;;;6217478;28;20041;-74
2022/08/26 02:25:47;;;;;;;2.08;0.80;;;23.40;57.50;;;;;;6216983;28;20030;-75
2022/08/26 02:29:01;;;;;;;1.13;0.95;;;23.40;57.50;;;;;;6213422;28;20014;-74
2022/08/26 02:32:02;;;;;;;1.30;1.00;;;23.40;57.50;;;;;;6224779;28;20018;-74
2022/08/26 02:35:03;;;;;;;1.17;0.98;;;23.40;57.50;;;;;;6224209;28;20033;-74
2022/08/26 02:38:07;;;;;;;0.77;0.70;;;23.40;57.50;;;;;;6218367;28;20111;-74
2022/08/26 02:41:08;;;;;;;1.15;0.98;;;23.40;57.50;;;;;;6218183;28;20081;-74
2022/08/26 02:44:10;;;;;;;1.85;1.00;;;23.40;57.50;;;;;;6220548;28;20038;-74
2022/08/26 02:47:12;;;;;;;0.70;0.70;;;23.40;57.50;;;;;;6218137;28;20030;-74
2022/08/26 02:50:13;;;;;;;0.95;0.77;;;23.40;57.50;;;;;;6218105;28;20037;-74
2022/08/26 02:53:15;;;;;;;0.90;0.80;;;23.40;57.50;;;;;;6217780;28;20529;-74
2022/08/26 02:56:15;;;;;;;1.30;0.90;;;23.40;57.50;;;;;;6221298;28;20037;-74
2022/08/26 02:59:16;;;;;;;1.10;0.60;;;23.40;57.50;;;;;;6217894;28;20026;-74
2022/08/26 03:02:17;;;;;;;1.00;0.90;;;23.40;57.50;;;;;;6216862;28;20034;-74
2022/08/26 03:05:20;;;;;;;1.05;0.82;;;23.40;57.50;;;;;;6217566;28;20026;-74
2022/08/26 03:08:21;;;;;;;0.80;0.80;;;23.40;57.50;;;;;;6217566;28;20040;-74
2022/08/26 03:11:22;;;;;;;0.90;0.80;;;23.40;57.50;;;;;;6217548;28;20361;-74
2022/08/26 03:14:23;;;;;;;0.70;0.70;;;23.40;57.60;;;;;;6216623;28;20414;-74
2022/08/26 03:17:24;;;;;;;0.80;0.73;;;23.40;58.20;;;;;;6216337;28;20033;-74
2022/08/26 03:20:25;;;;;;;1.00;0.80;;;23.40;57.50;;;;;;6216155;28;20091;-74
2022/08/26 03:23:25;;;;;;;0.82;0.70;;;23.40;57.50;;;;;;6216367;28;20488;-73
2022/08/26 03:26:27;;;;;;;1.88;0.80;;;23.40;57.50;;;;;;6215842;28;20026;-74
2022/08/26 03:32:47;;;;;;;0.90;0.80;;;23.40;57.60;;;;;;6215957;28;20113;-74
2022/08/26 03:35:48;;;;;;;1.35;0.80;;;23.40;57.50;;;;;;6215590;28;20024;-74
2022/08/26 03:38:48;;;;;;;1.35;1.00;;;23.30;57.50;;;;;;6216100;28;20026;-74
2022/08/26 03:41:50;;;;;;;0.90;0.80;;;23.40;57.50;;;;;;6216753;28;20050;-74
2022/08/26 03:44:51;;;;;;;0.80;0.80;;;23.40;57.50;;;;;;6221265;28;20068;-74
2022/08/26 03:47:51;;;;;;;1.58;0.80;;;23.40;57.50;;;;;;6223290;28;20030;-74
2022/08/26 03:50:52;;;;;;;0.68;0.68;;;23.40;57.60;;;;;;6216157;28;20028;-73
2022/08/26 03:53:53;;;;;;;1.08;0.88;;;23.40;57.60;;;;;;6215026;28;20057;-73
2022/08/26 03:56:53;;;;;;;0.93;0.77;;;23.40;57.50;;;;;;6215627;28;20034;-74
2022/08/26 03:59:54;;;;;;;0.82;0.80;;;23.40;57.50;;;;;;6215745;28;20071;-74
2022/08/26 04:02:55;;;;;;;0.75;0.70;;;23.40;57.50;;;;;;6214916;28;20083;-74
2022/08/26 04:05:55;;;;;;;0.70;0.60;;;23.40;57.60;;;;;;6215494;28;20033;-73
2022/08/26 04:08:59;;;;;;;1.05;0.80;;;23.40;57.60;;;;;;6216782;28;20030;-73
2022/08/26 04:12:00;;;;;;;1.23;0.65;;;23.40;57.60;;;;;;6216292;28;20025;-74
2022/08/26 04:15:04;;;;;;;1.02;0.73;;;23.40;57.60;;;;;;6216334;28;20054;-74
2022/08/26 04:18:04;;;;;;;0.80;0.68;;;23.40;57.60;;;;;;6216583;28;20383;-74
2022/08/26 04:21:05;;;;;;;0.95;0.88;;;23.40;57.60;;;;;;6216494;28;20109;-74
2022/08/26 04:24:08;;;;;;;1.15;0.93;;;23.40;57.60;;;;;;6215826;28;20475;-74
2022/08/26 04:27:09;;;;;;;1.95;0.98;;;23.40;57.60;;;;;;6219209;28;20647;-75
2022/08/26 04:30:10;;;;;;;1.10;0.70;;;23.40;57.60;;;;;;6214469;28;20053;-74
2022/08/26 04:33:12;;;;;;;0.80;0.80;;;23.40;58.20;;;;;;6214775;28;20018;-73
2022/08/26 04:36:13;;;;;;;0.60;0.60;;;23.40;57.60;;;;;;6215818;28;20422;-73
2022/08/26 04:39:15;;;;;;;1.52;0.82;;;23.40;57.60;;;;;;6220782;28;20070;-74
2022/08/26 04:42:16;;;;;;;0.80;0.80;;;23.40;57.60;;;;;;6215078;28;20046;-73
2022/08/26 04:45:16;;;;;;;0.70;0.70;;;23.40;57.60;;;;;;6214119;28;20412;-74
2022/08/26 04:48:17;;;;;;;3.22;0.60;;;23.40;57.60;;;;;;6217134;28;20024;-74
2022/08/26 04:51:20;;;;;;;0.98;0.80;;;23.40;57.60;;;;;;6215876;28;20038;-74
2022/08/26 04:54:20;;;;;;;0.70;0.70;;;23.40;57.60;;;;;;6215829;28;20026;-74
2022/08/26 04:57:22;;;;;;;0.60;0.60;;;23.40;57.60;;;;;;6214540;28;20053;-74
2022/08/26 05:00:35;;;;;;;1.52;0.60;;;23.40;57.60;;;;;;6214410;28;20033;-74
2022/08/26 05:03:35;;;;;;;0.73;0.63;;;23.40;57.60;;;;;;6195302;28;20037;-74
2022/08/26 05:06:37;;;;;;;0.80;0.70;;;23.40;57.60;;;;;;6215011;28;20033;-75
2022/08/26 05:09:40;;;;;;;1.40;0.80;;;23.40;57.60;;;;;;6215454;28;20531;-74
2022/08/26 05:12:41;;;;;;;0.70;0.70;;;23.40;57.60;;;;;;6214672;28;20556;-73
2022/08/26 05:15:43;;;;;;;0.60;0.60;;;23.40;57.60;;;;;;6214260;28;20026;-74
2022/08/26 05:18:44;;;;;;;1.10;0.93;;;23.40;57.60;;;;;;6214130;28;20422;-73
2022/08/26 05:21:47;;;;;;;0.73;0.73;;;23.40;57.60;;;;;;6214494;28;20082;-74
2022/08/26 05:24:48;;;;;;;0.77;0.70;;;23.40;57.60;;;;;;6217302;28;20022;-74
2022/08/26 05:27:48;;;;;;;0.60;0.60;;;23.40;57.60;;;;;;6218690;28;20487;-74
2022/08/26 05:30:50;;;;;;;0.70;0.70;;;23.40;57.60;;;;;;6218126;28;20022;-74
2022/08/26 05:33:50;;;;;;;0.80;0.70;;;23.40;57.60;;;;;;6205254;28;20030;-75
2022/08/26 05:36:51;;;;;;;0.82;0.80;;;23.40;57.70;;;;;;6225779;28;20084;-74
2022/08/26 05:39:52;;;;;;;0.75;0.70;;;23.40;57.60;;;;;;6207090;28;20053;-74
2022/08/26 05:42:53;;;;;;;0.60;0.60;;;23.40;57.60;;;;;;6217827;28;20097;-74
2022/08/26 05:45:55;;;;;;;0.70;0.70;;;23.40;57.60;;;;;;6217027;28;20075;-75
2022/08/26 05:48:56;;;;;;;0.50;0.50;;;23.40;57.60;;;;;;6223713;28;20026;-74
2022/08/26 05:51:56;;;;;;;0.85;0.77;;;23.40;57.60;;;;;;6210444;28;20499;-74
2022/08/26 05:54:57;;;;;;;1.00;0.90;;;23.40;57.60;;;;;;6216654;28;20022;-75
2022/08/26 05:57:58;;;;;;;0.80;0.80;;;23.40;57.80;;;;;;6196355;28;20425;-74
2022/08/26 06:01:24;;;;;;;3.00;0.68;;;23.50;57.90;;;;;;6215231;28;20564;-75
2022/08/26 06:04:25;;;;;;;0.90;0.77;;;23.50;58.00;;;;;;6206654;28;20026;-74
2022/08/26 06:08:09;;;;;;;0.85;0.60;;;23.50;57.80;;;;;;6223283;28;20033;-74
2022/08/26 06:10:54;;;;;;;1.85;0.93;;;23.50;57.70;;;;;;6220425;28;20030;-74
2022/08/26 06:13:57;;;;;;;0.90;0.75;;;23.50;57.60;;;;;;6222990;28;20026;-74
2022/08/26 06:16:59;;;;;;;0.80;0.80;;;23.60;57.70;;;;;;6225617;28;20022;-74
2022/08/26 06:20:00;;;;;;;0.93;0.77;;;23.60;57.80;;;;;;6220009;28;20029;-73
2022/08/26 06:26:20;;;;;;;1.15;0.80;;;23.60;57.80;;;;;;6219358;28;20037;-74
2022/08/26 06:29:23;;;;;;;0.60;0.60;;;23.60;57.70;;;;;;6219037;28;20037;-73
2022/08/26 06:32:24;;;;;;;0.70;0.60;;;23.60;57.70;;;;;;6220172;28;20075;-74
2022/08/26 06:35:24;;;;;;;0.70;0.63;;;23.60;57.70;;;;;;6219675;28;20029;-73
2022/08/26 06:38:25;;;;;;;3.60;0.80;;;23.50;57.60;;;;;;6188867;28;20125;-73
2022/08/26 06:41:26;;;;;;;0.93;0.60;;;23.50;57.70;;;;;;6212116;28;20046;-74
2022/08/26 06:44:26;;;;;;;1.73;1.02;;;23.50;57.70;;;;;;6206520;28;20097;-74
2022/08/26 06:47:27;;;;;;;1.67;0.80;;;23.50;57.70;;;;;;6220188;28;20110;-74
2022/08/26 06:50:28;;;;;;;3.05;0.70;;;23.50;57.80;;;;;;6219332;28;20068;-73
2022/08/26 06:53:29;;;;;;;1.40;0.77;;;23.50;57.70;;;;;;6219921;28;20025;-74
2022/08/26 06:56:41;;;;;;;1.35;0.80;;;23.50;57.70;;;;;;6272479;28;20027;-74
2022/08/26 06:59:42;;;;;;;1.10;0.70;;;23.50;57.70;;;;;;6348380;28;20019;-73
2022/08/26 07:02:43;;;;;;;1.35;0.63;;;23.50;57.80;;;;;;6225959;28;20499;-74
2022/08/26 07:05:43;;;;;;;1.10;1.00;;;23.50;57.90;;;;;;6219332;28;20034;-73
2022/08/26 07:08:48;;;;;;;1.00;0.70;;;23.50;57.90;;;;;;6294257;28;20066;-73
2022/08/26 07:11:50;;;;;;;1.00;0.90;;;23.60;57.90;;;;;;6293916;28;20094;-74
2022/08/26 07:14:50;;;;;;;1.58;0.80;;;23.60;57.90;;;;;;6294553;28;20501;-74
2022/08/26 07:17:51;;;;;;;1.02;0.80;;;23.60;57.90;;;;;;6289782;28;20025;-74
2022/08/26 07:20:52;;;;;;;2.00;0.80;;;23.60;57.90;;;;;;6293985;28;20032;-73
2022/08/26 07:23:53;;;;;;;1.38;0.80;;;23.60;57.80;;;;;;6293825;28;20468;-73
2022/08/26 07:26:58;;;;;;;1.30;0.90;;;23.60;57.80;;;;;;6296403;28;20028;-75
2022/08/26 07:29:59;;;;;;;;;;;23.60;57.80;;;;;;6319299;28;20070;-74
2022/08/26 07:33:00;;;;;;;1.10;0.82;;;23.60;57.70;;;;;;6298765;28;20278;-74
2022/08/26 07:36:01;;;;;;;1.10;0.80;;;23.60;57.80;;;;;;6291229;28;20051;-74
2022/08/26 07:39:02;;;;;;;0.63;0.60;;;23.50;57.70;;;;;;6264468;28;20457;-74
2022/08/26 07:42:05;;;;;;;0.70;0.60;;;23.50;57.70;;;;;;6218273;28;20042;-75
2022/08/26 07:45:06;;;;;;;1.60;0.60;;;23.50;57.80;;;;;;6217373;28;20118;-75
2022/08/26 07:48:07;;;;;;;0.70;0.50;;;23.50;57.80;;;;;;6217177;28;20030;-74
2022/08/26 07:51:07;;;;;;;1.10;0.70;;;23.50;57.80;;;;;;6218896;28;20054;-74
2022/08/26 07:54:08;;;;;;;0.90;0.70;;;23.50;57.80;;;;;;6218505;28;20022;-74
2022/08/26 07:57:09;;;;;;;1.98;0.93;;;23.50;57.80;;;;;;6218611;28;20037;-74
2022/08/26 08:00:14;;;;;;;0.98;0.65;;;23.50;57.70;;;;;;6218970;28;20021;-74
2022/08/26 08:03:15;;;;;;;0.73;0.70;;;23.50;57.70;;;;;;6218253;28;20068;-74
2022/08/26 08:06:17;;;;;;;1.25;0.88;;;23.50;57.80;;;;;;6218048;28;20030;-74
2022/08/26 08:09:17;;;;;;;0.80;0.70;;;23.50;57.80;;;;;;6223504;28;20034;-74
2022/08/26 08:12:18;;;;;;;1.00;0.70;;;23.50;58.70;;;;;;6219451;28;20421;-74
2022/08/26 08:15:23;;;;;;;1.17;0.80;;;23.50;57.90;;;;;;6216330;28;20080;-73
2022/08/26 08:18:27;;;;;;;1.10;0.60;;;23.50;58.00;;;;;;6217907;28;20030;-74
2022/08/26 08:21:29;;;;;;;3.38;1.00;;;23.50;57.90;;;;;;6217065;28;20042;-73
2022/08/26 08:24:32;;;;;;;0.50;0.50;;;23.50;57.90;;;;;;6221944;28;20155;-73
2022/08/26 08:27:34;;;;;;;0.82;0.70;;;23.50;57.90;;;;;;6216953;28;20041;-74
2022/08/26 08:30:38;;;;;;;1.00;0.70;;;23.50;57.90;;;;;;6217692;28;20500;-73
2022/08/26 08:33:39;;;;;;;0.87;0.60;;;23.50;57.90;;;;;;6217050;28;20025;-74
2022/08/26 08:36:39;;;;;;;0.85;0.70;;;23.50;57.90;;;;;;6211970;28;20485;-74
2022/08/26 08:39:40;;;;;;;1.30;0.70;;;23.50;57.90;;;;;;6216998;28;20032;-73
2022/08/26 08:43:04;;;;;;;0.98;0.65;;;23.50;57.80;;;;;;6216873;28;20536;-73
2022/08/26 08:46:11;;;;;;;3.45;0.80;;;23.50;57.80;;;;;;6217420;28;20454;-73
2022/08/26 08:49:13;;;;;;;1.02;0.73;;;23.50;57.80;;;;;;6216846;28;20479;-74
2022/08/26 08:52:31;;;;;;;1.33;0.68;;;23.50;57.80;;;;;;6217283;28;20583;-73
2022/08/26 08:55:57;;;;;;;0.98;0.73;;;23.50;57.80;;;;;;6217068;28;20026;-73
2022/08/26 08:59:20;;;;;;;1.20;0.80;;;23.50;57.80;;;;;;6220677;28;20514;-73
2022/08/26 09:03:00;;;;;;;0.98;0.82;;;23.50;57.80;;;;;;6220728;28;20030;-73
2022/08/26 09:06:03;;;;;;;0.60;0.60;;;23.50;57.80;;;;;;6221010;28;20155;-74
2022/08/26 09:09:06;;;;;;;0.68;0.60;;;23.50;57.80;;;;;;6228395;28;20523;-74
2022/08/26 09:12:13;;;;;;;1.33;0.75;;;23.40;57.70;;;;;;6214267;28;20033;-73
2022/08/26 09:15:25;;;;;;;0.70;0.60;;;23.40;57.70;;;;;;6215861;28;20022;-73
2022/08/26 09:18:40;;;;;;;0.50;0.50;;;23.50;57.80;;;;;;6220697;28;20062;-73
2022/08/26 09:21:40;;;;;;;0.70;0.70;;;23.50;57.80;;;;;;6221170;28;20038;-75
2022/08/26 09:24:41;;;;;;;0.50;0.50;;;23.50;57.80;;;;;;6280817;28;20081;-74
2022/08/26 09:27:47;;;;;;;1.40;0.70;;;23.40;57.70;;;;;;6280798;28;20030;-73
2022/08/26 09:31:09;;;;;;;0.98;0.70;;;23.50;57.80;;;;;;6221027;28;20033;-73
2022/08/26 09:34:50;;;;;;;0.82;0.82;;;23.50;58.40;;;;;;6220473;28;20033;-73
2022/08/26 09:37:52;;;;;;;1.05;0.70;;;23.50;57.80;;;;;;6220773;28;20040;-74
2022/08/26 09:41:04;;;;;;;0.60;0.50;;;23.50;57.80;;;;;;6226847;28;20054;-74
2022/08/26 09:44:17;;;;;;;1.92;0.85;;;23.50;57.80;;;;;;6219533;28;20392;-73
2022/08/26 09:47:30;;;;;;;0.80;0.70;;;23.50;57.80;;;;;;6220257;28;20034;-74
2022/08/26 09:50:35;;;;;;;1.33;0.95;;;23.50;57.80;;;;;;6220336;28;20022;-73
2022/08/26 09:53:50;;;;;;;1.48;0.80;;;23.50;57.80;;;;;;6219206;28;20060;-73
2022/08/26 09:56:52;;;;;;;0.82;0.65;;;23.50;57.80;;;;;;6219185;28;20030;-73
2022/08/26 09:59:53;;;;;;;1.02;0.80;;;23.50;57.80;;;;;;6218775;28;20018;-73
2022/08/26 10:02:54;;;;;;;0.65;0.60;;;23.50;58.50;;;;;;6219069;28;20044;-73
2022/08/26 10:06:18;;;;;;;0.90;0.80;;;23.50;57.80;;;;;;6218171;28;20408;-73
2022/08/26 10:09:19;;;;;;;1.40;0.70;;;23.40;57.70;;;;;;6218669;28;20034;-73
2022/08/26 10:12:21;;;;;;;2.42;0.70;;;23.40;57.70;;;;;;6219450;28;20026;-73
2022/08/26 10:15:25;;;;;;;1.45;0.80;;;23.50;57.80;;;;;;6219643;28;20022;-73
2022/08/26 10:18:34;;;;;;;1.35;0.80;;;23.40;57.80;;;;;;6220053;28;20021;-73
2022/08/26 10:21:41;;;;;;;1.27;0.90;;;23.40;57.70;;;;;;6219673;28;20038;-74
2022/08/26 10:24:56;;;;;;;1.00;0.90;;;23.40;57.70;;;;;;6225538;28;20044;-73
2022/08/26 10:28:10;;;;;;;1.33;0.90;;;23.40;57.80;;;;;;6208514;28;20030;-74
2022/08/26 10:31:28;;;;;;;0.87;0.70;;;23.40;57.80;;;;;;6217104;28;20397;-73
2022/08/26 10:34:30;;;;;;;1.10;0.90;;;23.40;57.80;;;;;;6219927;28;20646;-74
2022/08/26 10:37:42;;;;;;;0.70;0.70;;;23.40;57.70;;;;;;6220147;28;20065;-73
2022/08/26 10:40:48;;;;;;;2.05;0.98;;;23.40;57.70;;;;;;6219636;28;20054;-73
2022/08/26 10:43:59;;;;;;;1.15;0.75;;;23.40;57.70;;;;;;6219499;28;20034;-73
2022/08/26 10:47:13;;;;;;;1.20;0.93;;;23.40;57.70;;;;;;6220118;28;20018;-73
2022/08/26 10:50:14;;;;;;;1.30;0.80;;;23.40;57.70;;;;;;6218193;28;20264;-73
2022/08/26 10:53:38;;;;;;;1.80;0.77;;;23.40;57.70;;;;;;6224089;28;20484;-73
2022/08/26 10:56:47;;;;;;;0.67;0.67;;;23.40;57.70;;;;;;6219899;28;20049;-73
2022/08/26 10:59:52;;;;;;;1.10;0.65;;;23.40;57.70;;;;;;6219469;28;20054;-74
2022/08/26 11:03:18;;;;;;;1.10;0.80;;;23.40;57.70;;;;;;6219628;28;20076;-73
2022/08/26 11:06:23;;;;;;;;;;;23.40;57.70;;;;;;6250338;28;20030;-75
2022/08/26 11:09:45;;;;;;;0.67;0.60;;;23.40;57.70;;;;;;6219449;28;19906;-73
2022/08/26 11:12:54;;;;;;;1.27;0.93;;;23.40;57.70;;;;;;6219612;28;20576;-73
2022/08/26 11:15:57;;;;;;;1.20;1.00;;;23.40;57.70;;;;;;6219497;28;20037;-73
2022/08/26 11:18:58;;;;;;;1.30;0.80;;;23.40;57.90;;;;;;6216004;28;20030;-74
2022/08/26 11:22:05;;;;;;;0.73;0.70;;;23.40;57.70;;;;;;6278390;28;20031;-73
2022/08/26 11:25:20;;;;;;;1.10;0.82;;;23.40;57.80;;;;;;6318576;28;20029;-73
2022/08/26 11:28:34;;;;;;;;;;;23.40;57.80;;;;;;6218609;28;20025;-73
2022/08/26 11:31:37;;;;;;;2.75;1.02;;;23.40;57.80;;;;;;6218837;28;19913;-73
2022/08/26 11:34:58;;;;;;;1.13;0.80;;;23.40;57.80;;;;;;6218385;28;20029;-73
2022/08/26 11:38:02;;;;;;;1.30;0.80;;;23.40;57.80;;;;;;6218255;28;20117;-73
2022/08/26 11:41:16;;;;;;;1.30;1.08;;;23.40;57.80;;;;;;6217067;28;20042;-73
2022/08/26 11:44:24;;;;;;;1.40;0.77;;;23.40;57.80;;;;;;6224377;28;20033;-73
2022/08/26 11:47:28;;;;;;;1.00;0.77;;;23.40;57.80;;;;;;6218736;28;20041;-73
2022/08/26 11:50:29;;;;;;;1.20;0.80;;;23.40;57.80;;;;;;6217503;28;20365;-73
2022/08/26 11:53:33;;;;;;;2.38;1.00;;;23.40;57.80;;;;;;6218376;28;20046;-72
2022/08/26 11:56:35;;;;;;;1.73;0.70;;;23.40;57.80;;;;;;6222743;28;20109;-73
2022/08/26 11:59:39;;;;;;;1.58;0.80;;;23.40;57.80;;;;;;6218050;28;20026;-73
2022/08/26 12:02:40;;;;;;;1.25;0.88;;;23.40;57.80;;;;;;6217660;28;20038;-74
2022/08/26 12:05:46;;;;;;;1.58;1.10;;;23.40;57.80;;;;;;6217707;28;20022;-73
2022/08/26 12:08:47;;;;;;;1.50;1.00;;;23.40;57.80;;;;;;6218048;28;20431;-73
2022/08/26 12:11:48;;;;;;;1.52;0.90;;;23.40;57.90;;;;;;6224092;28;20034;-73
2022/08/26 12:15:17;;;;;;;0.77;0.70;;;23.40;57.90;;;;;;6217574;28;20033;-73
2022/08/26 12:18:20;;;;;;;1.23;0.90;;;23.40;57.80;;;;;;6217179;28;20026;-73
2022/08/26 12:21:30;;;;;;;0.93;0.77;;;23.40;57.80;;;;;;6217430;28;20033;-73
2022/08/26 12:24:31;;;;;;;0.90;0.60;;;23.40;57.80;;;;;;6217782;28;20065;-73
2022/08/26 12:27:33;;;;;;;1.15;0.80;;;23.40;57.80;;;;;;6213617;28;20026;-73
2022/08/26 12:30:34;;;;;;;1.83;1.10;;;23.40;57.90;;;;;;6192767;28;20030;-74
2022/08/26 12:33:35;;;;;;;2.53;0.70;;;23.40;57.90;;;;;;6215460;28;20010;-73
2022/08/26 12:36:46;;;;;;;1.05;0.77;;;23.40;57.80;;;;;;6215367;28;20476;-73
2022/08/26 12:39:47;;;;;;;0.77;0.70;;;23.40;57.80;;;;;;6216123;28;20148;-73
2022/08/26 12:42:50;;;;;;;1.10;0.70;;;23.40;57.80;;;;;;6216174;28;20049;-73
2022/08/26 12:46:00;;;;;;;0.90;0.63;;;23.40;57.90;;;;;;6215632;28;20074;-73
2022/08/26 12:49:02;;;;;;;1.27;0.73;;;23.40;57.90;;;;;;6192205;28;20057;-73
2022/08/26 12:52:04;;;;;;;1.08;0.70;;;23.40;57.90;;;;;;6201328;28;20025;-75
2022/08/26 12:55:17;;;;;;;1.58;0.85;;;23.40;57.90;;;;;;6221939;28;20041;-73
2022/08/26 12:58:21;;;;;;;2.88;0.98;;;23.40;57.90;;;;;;6216459;28;20649;-73
2022/08/26 13:01:22;;;;;;;1.05;0.73;;;23.40;57.90;;;;;;6215787;28;20534;-73
2022/08/26 13:04:40;;;;;;;1.15;0.70;;;23.40;57.90;;;;;;6215803;28;20065;-73
2022/08/26 13:07:41;;;;;;;1.27;0.70;;;23.40;58.00;;;;;;6215567;28;20120;-74
2022/08/26 13:10:46;;;;;;;0.85;0.80;;;23.40;58.10;;;;;;6215978;28;20071;-73
2022/08/26 13:13:51;;;;;;;2.15;1.10;;;23.40;58.00;;;;;;6215279;28;20021;-73
2022/08/26 13:16:52;;;;;;;1.80;1.15;;;23.40;58.00;;;;;;6215506;28;20026;-73
2022/08/26 13:19:53;;;;;;;0.90;0.80;;;23.40;58.00;;;;;;6216090;28;20022;-73
2022/08/26 13:22:54;;;;;;;0.98;0.85;;;23.40;58.10;;;;;;6232886;28;20032;-73
2022/08/26 13:25:55;;;;;;;1.42;0.80;;;23.40;58.20;;;;;;6343162;28;20019;-73
2022/08/26 13:28:55;;;;;;;0.82;0.80;;;23.40;58.20;;;;;;6231024;28;20041;-73
2022/08/26 13:31:57;;;;;;;1.67;0.95;;;23.40;58.20;;;;;;6215490;28;20025;-74
2022/08/26 13:34:58;;;;;;;0.98;0.90;;;23.40;58.30;;;;;;6214648;28;20018;-73
2022/08/26 13:37:59;;;;;;;1.40;0.75;;;23.40;58.20;;;;;;6221722;28;20598;-75
2022/08/26 13:41:01;;;;;;;1.80;1.00;;;23.40;58.20;;;;;;6215587;28;20095;-73
2022/08/26 13:44:03;;;;;;;1.10;1.00;;;23.40;58.50;;;;;;6216047;28;20030;-73
2022/08/26 13:47:04;;;;;;;3.00;1.08;;;23.40;58.50;;;;;;6219112;28;20022;-73
2022/08/26 13:50:05;;;;;;;3.60;1.10;;;23.40;58.50;;;;;;6219893;28;20030;-73
2022/08/26 13:53:06;;;;;;;1.27;0.93;;;23.40;58.40;;;;;;6219981;28;20044;-73
2022/08/26 13:56:06;;;;;;;1.90;1.10;;;23.40;58.40;;;;;;6219916;28;20033;-74
2022/08/26 13:59:07;;;;;;;4.07;1.30;;;23.40;58.30;;;;;;6219979;28;20037;-73
2022/08/26 14:02:08;;;;;;;1.40;0.77;;;23.40;58.40;;;;;;6220308;28;20113;-73
2022/08/26 14:05:09;;;;;;;1.65;1.05;;;23.40;58.30;;;;;;6218181;28;20461;-73
2022/08/26 14:08:10;;;;;;;2.05;1.10;;;23.40;58.30;;;;;;6219961;28;20095;-74
2022/08/26 14:11:11;;;;;;;1.25;0.93;;;23.40;58.50;;;;;;6220671;28;20026;-74
2022/08/26 14:14:12;;;;;;;2.60;0.90;;;23.40;58.40;;;;;;6219092;28;20022;-73
2022/08/26 14:17:21;;;;;;;2.28;1.00;;;23.40;58.40;;;;;;6226393;28;20026;-73
2022/08/26 14:20:27;;;;;;;1.20;0.90;;;23.40;58.30;;;;;;6217147;28;20512;-73
2022/08/26 14:23:28;;;;;;;1.77;1.20;;;23.40;58.40;;;;;;6219428;28;20087;-73
2022/08/26 14:26:29;;;;;;;1.38;0.70;;;23.40;58.40;;;;;;6218974;28;20034;-73
2022/08/26 14:29:29;;;;;;;4.00;0.98;;;23.40;58.40;;;;;;6219609;28;20118;-73
2022/08/26 14:32:31;;;;;;;2.03;1.30;;;23.40;59.10;;;;;;6219634;28;20037;-73
2022/08/26 14:35:32;;;;;;;1.48;0.93;;;23.40;58.50;;;;;;6218787;28;20037;-73
2022/08/26 14:38:33;;;;;;;2.53;0.98;;;23.40;58.40;;;;;;6218858;28;20046;-73
2022/08/26 14:41:45;;;;;;;1.30;1.08;;;23.40;58.40;;;;;;6219491;28;20073;-74
2022/08/26 14:44:49;;;;;;;1.88;0.88;;;23.40;58.30;;;;;;6211939;28;20700;-72
2022/08/26 14:47:51;;;;;;;1.40;0.93;;;23.40;58.50;;;;;;6217402;28;20060;-73
2022/08/26 14:50:51;;;;;;;2.40;1.10;;;23.40;58.40;;;;;;6224930;28;20018;-74
2022/08/26 14:57:12;;;;;;;1.98;1.10;;;23.40;58.50;;;;;;6225339;28;20120;-73
2022/08/26 15:00:13;;;;;;;6.63;1.70;;;23.40;58.70;;;;;;6218228;28;20060;-74
2022/08/26 15:03:14;;;;;;;6.60;1.95;;;23.50;60.60;;;;;;6218227;28;20048;-73
2022/08/26 15:06:16;;;;;;;2.30;1.20;;;23.50;61.00;;;;;;6223453;28;20070;-72
2022/08/26 15:09:17;;;;;;;2.65;1.35;;;23.50;59.10;;;;;;6218647;28;20027;-73
2022/08/26 15:12:17;;;;;;;2.15;1.30;;;23.50;59.60;;;;;;6207746;28;20034;-73
2022/08/26 15:15:18;;;;;;;9.52;1.80;;;23.40;59.00;;;;;;6217363;28;20018;-72
2022/08/26 15:18:19;;;;;;;7.60;2.38;;;23.40;59.10;;;;;;6218226;28;20030;-73
2022/08/26 15:21:19;;;;;;;9.73;2.55;;;23.40;60.80;;;;;;6215490;28;20404;-73
2022/08/26 15:24:23;;;;;;;12.10;3.00;;;23.40;64.60;;;;;;6220436;28;20018;-73
2022/08/26 15:27:23;;;;;;;6.90;2.35;;;23.40;64.30;;;;;;6209366;28;20050;-74
2022/08/26 15:30:24;;;;;;;7.68;2.40;;;23.40;63.40;;;;;;6209327;28;20033;-73
2022/08/26 15:33:25;;;;;;;12.10;4.20;;;23.40;63.60;;;;;;6217642;28;20113;-73
2022/08/26 15:36:27;;;;;;;10.70;3.08;;;23.40;64.80;;;;;;6217730;28;20026;-73
2022/08/26 15:39:28;;;;;;;8.48;2.75;;;23.40;62.20;;;;;;6217636;28;20114;-73
2022/08/26 15:42:29;;;;;;;7.95;3.42;;;23.40;63.30;;;;;;6218431;28;20034;-73
2022/08/26 15:45:32;;;;;;;10.80;2.40;;;23.40;64.70;;;;;;6217027;28;20053;-73
2022/08/26 15:48:32;;;;;;;5.78;1.80;;;23.40;61.80;;;;;;6218224;28;20030;-72
2022/08/26 15:51:39;;;;;;;7.18;2.20;;;23.50;62.20;;;;;;6217200;28;20061;-73
2022/08/26 15:54:40;;;;;;;10.20;2.83;;;23.50;63.30;;;;;;6216983;28;20040;-73
2022/08/26 15:57:40;;;;;;;8.98;2.70;;;23.50;63.60;;;;;;6217616;28;20058;-72
2022/08/26 16:00:41;;;;;;;6.20;2.38;;;23.50;64.30;;;;;;6223839;28;20033;-72
2022/08/26 16:03:42;;;;;;;8.48;2.58;;;23.50;63.80;;;;;;6216496;28;20498;-73
2022/08/26 16:06:46;;;;;;;8.13;2.95;;;23.50;64.30;;;;;;6222324;28;20041;-73
2022/08/26 16:09:49;;;;;;;10.40;3.15;;;23.50;64.80;;;;;;6217480;28;20497;-72